createdAt,value
2019-05-02T00:01:51.056Z,52.23
2019-05-02T00:04:20.010Z,52.23
2019-05-02T00:06:46.459Z,51.95
2019-05-02T00:09:13.363Z,51.83
2019-05-02T00:11:40.182Z,51.91
2019-05-02T00:14:06.965Z,51.89
2019-05-02T00:16:34.024Z,52.23
2019-05-02T00:19:00.787Z,52.96
2019-05-02T00:21:27.606Z,53.16
2019-05-02T00:23:54.330Z,52.73
2019-05-02T00:26:24.651Z,52.42
2019-05-02T00:28:49.919Z,52.53
2019-05-02T00:31:16.869Z,53.20
2019-05-02T00:33:43.761Z,52.93
2019-05-02T00:36:10.507Z,53.03
2019-05-02T00:38:38.459Z,53.27
2019-05-02T00:41:05.847Z,52.98
2019-05-02T00:43:34.446Z,53.12
2019-05-02T00:46:01.152Z,53.35
2019-05-02T00:48:27.966Z,53.57
2019-05-02T00:50:54.713Z,53.50
2019-05-02T00:53:21.682Z,53.67
2019-05-02T00:55:48.413Z,53.40
2019-05-02T00:58:15.163Z,52.92
2019-05-02T01:00:42.030Z,52.69
2019-05-02T01:03:10.996Z,52.73
2019-05-02T01:05:38.473Z,52.80
2019-05-02T01:08:05.865Z,53.05
2019-05-02T01:10:32.599Z,53.31
2019-05-02T01:12:59.471Z,53.55
2019-05-02T01:15:26.183Z,53.68
2019-05-02T01:17:52.925Z,53.22
2019-05-02T01:20:22.224Z,53.06
2019-05-02T01:22:52.278Z,53.31
2019-05-02T01:25:17.262Z,53.38
2019-05-02T01:27:44.228Z,53.76
2019-05-02T01:30:11.467Z,54.11
2019-05-02T01:32:38.200Z,53.98
2019-05-02T01:35:05.797Z,53.92
2019-05-02T01:37:32.542Z,54.01
2019-05-02T01:39:59.306Z,54.09
2019-05-02T01:42:39.055Z,53.99
2019-05-02T01:44:54.614Z,53.71
2019-05-02T01:47:21.364Z,54.04
2019-05-02T01:49:52.127Z,54.30
2019-05-02T01:52:18.935Z,54.06
2019-05-02T01:54:46.093Z,53.91
2019-05-02T01:57:13.851Z,54.04
2019-05-02T01:59:40.633Z,54.19
2019-05-02T02:02:07.471Z,54.45
2019-05-02T02:04:34.421Z,54.44
2019-05-02T02:07:01.133Z,54.26
2019-05-02T02:09:27.893Z,53.96
2019-05-02T02:11:54.665Z,54.21
2019-05-02T02:14:21.372Z,54.38
2019-05-02T02:16:48.123Z,54.50
2019-05-02T02:19:14.981Z,54.46
2019-05-02T02:21:42.950Z,54.62
2019-05-02T02:24:09.941Z,54.83
2019-05-02T02:26:36.828Z,55.05
2019-05-02T02:29:07.902Z,54.47
2019-05-02T02:31:32.299Z,54.92
2019-05-02T02:33:59.047Z,55.11
2019-05-02T02:36:31.561Z,54.63
2019-05-02T02:38:54.471Z,54.44
2019-05-02T02:41:21.183Z,54.24
2019-05-02T02:43:47.954Z,54.31
2019-05-02T02:46:14.825Z,54.42
2019-05-02T02:48:42.792Z,54.55
2019-05-02T02:51:09.685Z,54.74
2019-05-02T02:53:36.577Z,55.00
2019-05-02T02:56:06.615Z,55.05
2019-05-02T02:58:44.637Z,54.99
2019-05-02T03:01:02.464Z,55.19
2019-05-02T03:03:30.632Z,55.40
2019-05-02T03:05:58.809Z,54.88
2019-05-02T03:08:26.740Z,54.64
2019-05-02T03:10:53.660Z,54.63
2019-05-02T03:13:21.687Z,55.31
2019-05-02T03:15:49.355Z,55.26
2019-05-02T03:18:16.109Z,55.11
2019-05-02T03:20:42.869Z,55.31
2019-05-02T03:23:15.174Z,54.90
2019-05-02T03:25:49.695Z,54.81
2019-05-02T03:28:17.363Z,55.09
2019-05-02T03:30:37.180Z,55.43
2019-05-02T03:33:10.365Z,55.48
2019-05-02T03:35:42.897Z,55.05
2019-05-02T03:38:01.214Z,55.01
2019-05-02T03:40:32.209Z,54.72
2019-05-02T03:42:57.424Z,54.79
2019-05-02T03:45:24.340Z,54.89
2019-05-02T03:47:51.217Z,55.02
2019-05-02T03:50:31.219Z,55.07
2019-05-02T03:52:46.694Z,55.21
2019-05-02T03:55:13.741Z,55.56
2019-05-02T03:57:42.145Z,55.85
2019-05-02T04:00:13.703Z,55.81
2019-05-02T04:02:38.664Z,55.84
2019-05-02T04:05:05.615Z,55.66
2019-05-02T04:07:39.837Z,55.56
2019-05-02T04:10:03.396Z,55.46
2019-05-02T04:12:32.740Z,55.26
2019-05-02T04:14:58.822Z,55.46
2019-05-02T04:17:29.094Z,55.44
2019-05-02T04:19:55.112Z,55.45
2019-05-02T04:22:22.245Z,55.78
2019-05-02T04:24:54.376Z,56.05
2019-05-02T04:27:18.308Z,56.18
2019-05-02T04:29:45.144Z,56.00
2019-05-02T04:32:14.348Z,55.95
2019-05-02T04:34:40.595Z,56.03
2019-05-02T04:37:07.385Z,55.84
2019-05-02T04:39:34.158Z,55.79
2019-05-02T04:42:05.212Z,55.89
2019-05-02T04:44:43.676Z,55.95
2019-05-02T04:47:02.690Z,56.10
2019-05-02T04:49:31.708Z,56.10
2019-05-02T04:52:01.880Z,55.97
2019-05-02T04:54:31.465Z,56.04
2019-05-02T04:56:55.336Z,56.10
2019-05-02T04:59:23.027Z,56.39
2019-05-02T05:01:57.413Z,56.42
2019-05-02T05:04:18.633Z,56.43
2019-05-02T05:06:54.826Z,56.50
2019-05-02T05:09:15.081Z,56.31
2019-05-02T05:11:42.033Z,56.49
2019-05-02T05:14:10.047Z,56.55
2019-05-02T05:16:37.659Z,56.50
2019-05-02T05:19:07.494Z,56.70
2019-05-02T05:21:34.068Z,56.56
2019-05-02T05:24:01.552Z,56.68
2019-05-02T05:26:28.626Z,56.95
2019-05-02T05:28:55.521Z,56.97
2019-05-02T05:31:23.811Z,56.96
2019-05-02T05:33:50.769Z,57.09
2019-05-02T05:36:19.712Z,57.13
2019-05-02T05:38:47.832Z,57.29
2019-05-02T05:41:17.640Z,57.10
2019-05-02T05:43:44.890Z,57.09
2019-05-02T05:46:13.169Z,57.08
2019-05-02T05:48:40.879Z,56.93
2019-05-02T05:51:11.812Z,56.72
2019-05-02T05:53:37.500Z,56.65
2019-05-02T05:56:04.536Z,56.67
2019-05-02T05:58:31.292Z,56.68
2019-05-02T06:00:58.467Z,56.41
2019-05-02T06:03:25.164Z,56.36
2019-05-02T06:05:51.897Z,56.21
2019-05-02T06:08:19.931Z,56.31
2019-05-02T06:10:46.741Z,56.25
2019-05-02T06:13:13.434Z,56.05
2019-05-02T06:15:40.465Z,55.89
2019-05-02T06:18:07.326Z,55.37
2019-05-02T06:20:34.207Z,55.30
2019-05-02T06:23:01.340Z,55.15
2019-05-02T06:25:34.202Z,55.22
2019-05-02T06:28:00.169Z,54.75
2019-05-02T06:30:27.048Z,54.89
2019-05-02T06:32:54.956Z,54.49
2019-05-02T06:35:22.541Z,54.30
2019-05-02T06:37:50.131Z,54.51
2019-05-02T06:40:17.792Z,54.63
2019-05-02T06:42:44.660Z,54.14
2019-05-02T06:45:11.870Z,53.80
2019-05-02T06:47:41.564Z,53.52
2019-05-02T06:50:07.936Z,53.06
2019-05-02T06:52:34.720Z,53.31
2019-05-02T06:55:01.918Z,52.62
2019-05-02T06:57:28.675Z,52.06
2019-05-02T06:59:56.487Z,51.45
2019-05-02T07:02:23.442Z,50.65
2019-05-02T07:04:54.733Z,47.48
2019-05-02T07:07:18.880Z,46.65
2019-05-02T07:09:45.610Z,45.92
2019-05-02T07:12:14.720Z,44.83
2019-05-02T07:14:41.198Z,44.47
2019-05-02T07:17:08.044Z,44.40
2019-05-02T07:19:34.906Z,44.40
2019-05-02T07:22:04.224Z,44.89
2019-05-02T07:24:31.125Z,45.12
2019-05-02T07:27:01.988Z,45.16
2019-05-02T07:29:27.563Z,45.59
2019-05-02T07:31:54.300Z,45.66
2019-05-02T07:34:21.162Z,47.62
2019-05-02T07:36:47.912Z,47.77
2019-05-02T07:39:14.817Z,48.89
2019-05-02T07:41:41.569Z,46.93
2019-05-02T07:44:08.310Z,46.45
2019-05-02T07:46:35.177Z,46.31
2019-05-02T07:49:01.912Z,46.23
2019-05-02T07:51:28.658Z,46.12
2019-05-02T07:53:56.016Z,45.78
2019-05-02T07:56:22.822Z,46.02
2019-05-02T07:58:49.560Z,45.73
2019-05-02T08:01:16.410Z,46.23
2019-05-02T08:03:43.143Z,46.14
2019-05-02T08:06:09.879Z,45.86
2019-05-02T08:08:36.660Z,45.44
2019-05-02T08:11:03.793Z,46.03
2019-05-02T08:13:31.563Z,46.47
2019-05-02T08:15:58.293Z,45.52
2019-05-02T08:18:29.810Z,45.31
2019-05-02T08:20:55.984Z,46.01
2019-05-02T08:23:26.106Z,44.45
2019-05-02T08:25:50.720Z,44.28
2019-05-02T08:28:17.910Z,45.22
2019-05-02T08:30:44.751Z,44.66
2019-05-02T08:33:11.516Z,43.99
2019-05-02T08:35:38.272Z,43.74
2019-05-02T08:38:05.023Z,44.01
2019-05-02T08:40:31.883Z,44.17
2019-05-02T08:42:58.635Z,42.83
2019-05-02T08:45:25.372Z,42.67
2019-05-02T08:47:52.279Z,42.64
2019-05-02T08:50:19.031Z,42.29
2019-05-02T08:52:48.042Z,42.35
2019-05-02T08:55:14.522Z,41.33
2019-05-02T08:57:41.266Z,40.68
2019-05-02T09:00:10.907Z,42.09
2019-05-02T09:02:41.759Z,41.79
2019-05-02T09:05:06.579Z,41.47
2019-05-02T09:07:36.994Z,41.84
2019-05-02T09:10:05.846Z,40.41
2019-05-02T09:12:36.955Z,40.73
2019-05-02T09:15:02.718Z,39.96
2019-05-02T09:17:37.693Z,40.53
2019-05-02T09:20:02.454Z,39.44
2019-05-02T09:22:26.851Z,38.38
2019-05-02T09:24:53.621Z,37.10
2019-05-02T09:27:22.294Z,37.74
2019-05-02T09:29:49.169Z,38.03
2019-05-02T09:32:17.086Z,37.70
2019-05-02T09:34:44.467Z,36.33
2019-05-02T09:37:12.093Z,35.82
2019-05-02T09:39:38.874Z,36.49
2019-05-02T09:42:06.726Z,38.17
2019-05-02T09:44:34.197Z,36.16
2019-05-02T09:47:02.335Z,37.12
2019-05-02T09:49:29.353Z,37.77
2019-05-02T09:51:59.472Z,37.83
2019-05-02T09:54:24.595Z,37.16
2019-05-02T09:56:52.374Z,37.94
2019-05-02T09:59:27.706Z,37.76
2019-05-02T10:01:47.960Z,36.82
2019-05-02T10:04:14.857Z,36.48
2019-05-02T10:06:42.916Z,35.86
2019-05-02T10:09:11.932Z,36.63
2019-05-02T10:11:38.623Z,36.40
2019-05-02T10:14:05.573Z,35.20
2019-05-02T10:16:32.397Z,34.10
2019-05-02T10:19:00.326Z,33.14
2019-05-02T10:21:27.822Z,33.30
2019-05-02T10:23:59.430Z,32.51
2019-05-02T10:26:24.573Z,33.10
2019-05-02T10:28:53.389Z,32.85
2019-05-02T10:31:21.839Z,30.79
2019-05-02T10:33:48.679Z,32.92
2019-05-02T10:36:19.631Z,31.94
2019-05-02T10:38:44.063Z,31.44
2019-05-02T10:41:11.979Z,31.66
2019-05-02T10:43:38.824Z,33.30
2019-05-02T10:46:05.817Z,33.11
2019-05-02T10:48:33.176Z,32.36
2019-05-02T10:51:01.685Z,32.83
2019-05-02T10:53:28.709Z,32.29
2019-05-02T10:55:55.428Z,30.81
2019-05-02T10:58:25.836Z,30.13
2019-05-02T11:00:52.308Z,30.39
2019-05-02T11:03:19.547Z,29.82
2019-05-02T11:05:46.239Z,30.25
2019-05-02T11:08:13.006Z,28.71
2019-05-02T11:10:39.724Z,28.74
2019-05-02T11:13:06.639Z,27.77
2019-05-02T11:15:33.598Z,29.30
2019-05-02T11:18:02.173Z,28.38
2019-05-02T11:20:28.954Z,28.03
2019-05-02T11:22:55.821Z,27.30
2019-05-02T11:25:22.770Z,27.85
2019-05-02T11:27:49.974Z,26.78
2019-05-02T11:30:21.502Z,26.91
2019-05-02T11:32:45.532Z,26.32
2019-05-02T11:35:12.320Z,27.75
2019-05-02T11:37:39.029Z,28.19
2019-05-02T11:40:08.435Z,29.79
2019-05-02T11:42:35.682Z,28.42
2019-05-02T11:45:05.570Z,28.90
2019-05-02T11:47:32.894Z,26.92
2019-05-02T11:49:59.723Z,26.76
2019-05-02T11:52:27.584Z,28.07
2019-05-02T11:54:55.060Z,27.43
2019-05-02T11:57:28.671Z,26.00
2019-05-02T11:59:52.107Z,27.51
2019-05-02T12:02:19.137Z,26.00
2019-05-02T12:04:47.233Z,26.36
2019-05-02T12:07:14.410Z,25.74
2019-05-02T12:09:44.280Z,26.31
2019-05-02T12:12:09.715Z,25.96
2019-05-02T12:14:36.617Z,25.75
2019-05-02T12:17:03.465Z,25.96
2019-05-02T12:19:32.139Z,27.10
2019-05-02T12:21:58.868Z,26.31
2019-05-02T12:24:25.597Z,26.92
2019-05-02T12:26:52.902Z,26.01
2019-05-02T12:29:21.727Z,27.21
2019-05-02T12:31:54.761Z,25.24
2019-05-02T12:34:16.949Z,26.97
2019-05-02T12:36:43.673Z,25.42
2019-05-02T12:39:12.484Z,27.06
2019-05-02T12:41:39.040Z,27.39
2019-05-02T12:44:06.496Z,27.18
2019-05-02T12:46:33.206Z,27.30
2019-05-02T12:48:59.982Z,26.84
2019-05-02T12:51:26.714Z,26.90
2019-05-02T12:53:53.541Z,27.31
2019-05-02T12:56:20.280Z,27.73
2019-05-02T12:58:47.037Z,26.79
2019-05-02T13:01:13.932Z,27.11
2019-05-02T13:03:40.666Z,27.27
2019-05-02T13:06:07.526Z,27.58
2019-05-02T13:08:34.388Z,27.07
2019-05-02T13:11:02.169Z,26.84
2019-05-02T13:13:29.695Z,27.38
2019-05-02T13:15:56.563Z,27.68
2019-05-02T13:18:26.889Z,27.45
2019-05-02T13:20:52.816Z,28.55
2019-05-02T13:23:19.797Z,27.83
2019-05-02T13:25:46.521Z,27.31
2019-05-02T13:28:17.018Z,28.37
2019-05-02T13:30:46.564Z,27.72
2019-05-02T13:33:12.752Z,27.65
2019-05-02T13:35:39.884Z,27.52
2019-05-02T13:38:07.124Z,27.00
2019-05-02T13:40:38.146Z,27.86
2019-05-02T13:43:05.034Z,27.77
2019-05-02T13:45:32.422Z,27.24
2019-05-02T13:48:00.353Z,26.29
2019-05-02T13:50:27.078Z,27.07
2019-05-02T13:52:57.843Z,27.39
2019-05-02T13:55:23.678Z,26.28
2019-05-02T13:57:52.827Z,27.94
2019-05-02T14:00:19.353Z,26.43
2019-05-02T14:02:46.096Z,26.75
2019-05-02T14:05:15.081Z,26.01
2019-05-02T14:07:42.875Z,26.02
2019-05-02T14:10:11.956Z,27.00
2019-05-02T14:12:38.898Z,25.90
2019-05-02T14:15:06.006Z,26.08
2019-05-02T14:17:32.772Z,26.62
2019-05-02T14:20:10.001Z,26.64
2019-05-02T14:22:28.138Z,26.94
2019-05-02T14:24:55.815Z,26.63
2019-05-02T14:27:22.584Z,27.75
2019-05-02T14:29:49.312Z,27.20
2019-05-02T14:32:23.456Z,26.34
2019-05-02T14:34:44.626Z,26.42
2019-05-02T14:37:11.888Z,26.85
2019-05-02T14:39:38.850Z,27.07
2019-05-02T14:42:05.553Z,27.36
2019-05-02T14:45:00.381Z,26.97
2019-05-02T14:47:02.209Z,27.23
2019-05-02T14:49:28.990Z,27.48
2019-05-02T14:51:57.255Z,26.79
2019-05-02T14:54:24.416Z,26.61
2019-05-02T14:56:52.163Z,27.14
2019-05-02T14:59:19.955Z,27.70
2019-05-02T15:01:47.202Z,28.37
2019-05-02T15:04:13.934Z,28.69
2019-05-02T15:06:43.531Z,29.24
2019-05-02T15:09:11.939Z,29.87
2019-05-02T15:11:38.190Z,30.32
2019-05-02T15:14:04.952Z,31.06
2019-05-02T15:16:40.400Z,31.71
2019-05-02T15:19:02.152Z,33.10
2019-05-02T15:21:28.870Z,33.80
2019-05-02T15:23:57.821Z,34.18
2019-05-02T15:26:26.247Z,35.01
2019-05-02T15:28:52.700Z,35.58
2019-05-02T15:31:24.244Z,36.39
2019-05-02T15:33:48.120Z,36.73
2019-05-02T15:36:14.870Z,37.48
2019-05-02T15:38:47.135Z,38.08
2019-05-02T15:41:12.770Z,38.18
2019-05-02T15:43:39.294Z,38.16
2019-05-02T15:46:07.444Z,38.37
2019-05-02T15:48:34.193Z,38.80
2019-05-02T15:51:06.171Z,38.97
2019-05-02T15:53:29.610Z,38.59
2019-05-02T15:55:56.523Z,38.51
2019-05-02T15:58:27.665Z,38.61
2019-05-02T16:00:52.052Z,39.70
2019-05-02T16:03:19.916Z,40.10
2019-05-02T16:05:46.993Z,39.93
2019-05-02T16:08:13.712Z,40.11
2019-05-02T16:10:42.742Z,40.57
2019-05-02T16:13:15.722Z,40.77
2019-05-02T16:15:37.621Z,40.78
2019-05-02T16:18:05.333Z,40.97
2019-05-02T16:20:32.424Z,41.28
2019-05-02T16:23:01.920Z,41.38
2019-05-02T16:25:28.953Z,41.64
2019-05-02T16:28:02.656Z,41.39
2019-05-02T16:30:27.988Z,41.82
2019-05-02T16:32:54.941Z,41.71
2019-05-02T16:35:22.174Z,41.67
2019-05-02T16:37:54.083Z,41.90
2019-05-02T16:40:23.856Z,41.67
2019-05-02T16:42:47.181Z,41.73
2019-05-02T16:45:14.686Z,42.12
2019-05-02T16:47:42.258Z,42.37
2019-05-02T16:50:12.847Z,42.68
2019-05-02T16:52:43.744Z,43.20
2019-05-02T16:55:13.682Z,43.58
2019-05-02T16:57:39.768Z,43.51
2019-05-02T17:00:11.381Z,44.30
2019-05-02T17:02:43.618Z,44.54
2019-05-02T17:05:09.206Z,44.55
2019-05-02T17:07:39.422Z,44.66
2019-05-02T17:10:08.478Z,45.04
2019-05-02T17:12:39.204Z,45.24
2019-05-02T17:15:07.735Z,45.48
2019-05-02T17:17:42.409Z,46.03
2019-05-02T17:20:12.940Z,45.89
2019-05-02T17:22:39.404Z,46.25
2019-05-02T17:25:06.473Z,46.03
2019-05-02T17:27:33.226Z,46.39
2019-05-02T17:30:12.065Z,46.55
2019-05-02T17:32:38.932Z,47.17
2019-05-02T17:35:14.391Z,47.73
2019-05-02T17:37:48.117Z,47.93
2019-05-02T17:40:08.917Z,48.14
2019-05-02T17:42:35.709Z,48.66
2019-05-02T17:45:06.360Z,48.78
2019-05-02T17:47:36.244Z,48.53
2019-05-02T17:50:07.263Z,49.10
2019-05-02T17:52:34.976Z,48.95
2019-05-02T17:55:03.159Z,49.09
2019-05-02T17:57:33.452Z,48.98
2019-05-02T17:59:58.686Z,49.08
2019-05-02T18:02:25.401Z,49.08
2019-05-02T18:04:55.847Z,48.85
2019-05-02T18:07:25.285Z,48.87
2019-05-02T18:09:52.005Z,48.41
2019-05-02T18:12:18.590Z,48.57
2019-05-02T18:14:45.469Z,48.70
2019-05-02T18:17:12.726Z,48.55
2019-05-02T18:19:39.724Z,48.73
2019-05-02T18:22:07.143Z,48.69
2019-05-02T18:24:37.369Z,48.56
2019-05-02T18:27:03.765Z,48.42
2019-05-02T18:29:30.485Z,48.39
2019-05-02T18:31:57.207Z,48.48
2019-05-02T18:34:25.252Z,48.48
2019-05-02T18:36:52.449Z,48.66
2019-05-02T18:39:19.301Z,48.97
2019-05-02T18:41:46.457Z,48.86
2019-05-02T18:44:17.070Z,48.90
2019-05-02T18:46:42.879Z,48.83
2019-05-02T18:49:09.724Z,48.65
2019-05-02T18:51:36.568Z,48.86
2019-05-02T18:54:07.500Z,48.94
2019-05-02T18:56:35.587Z,48.73
2019-05-02T18:59:02.634Z,48.71
2019-05-02T19:01:29.560Z,48.56
2019-05-02T19:03:56.428Z,48.78
2019-05-02T19:06:23.138Z,49.06
2019-05-02T19:08:55.374Z,49.40
2019-05-02T19:11:22.254Z,49.58
2019-05-02T19:13:52.506Z,49.68
2019-05-02T19:16:24.299Z,49.97
2019-05-02T19:18:57.257Z,50.12
2019-05-02T19:21:26.371Z,50.22
2019-05-02T19:23:51.802Z,50.37
2019-05-02T19:26:18.762Z,50.69
2019-05-02T19:28:45.881Z,50.81
2019-05-02T19:31:12.670Z,50.84
2019-05-02T19:33:50.145Z,50.97
2019-05-02T19:36:24.404Z,50.98
2019-05-02T19:38:45.560Z,51.00
2019-05-02T19:41:12.303Z,51.21
2019-05-02T19:43:45.735Z,51.28
2019-05-02T19:46:07.750Z,51.32
2019-05-02T19:48:36.890Z,51.40
2019-05-02T19:51:03.660Z,51.47
2019-05-02T19:53:32.282Z,51.95
2019-05-02T19:56:01.494Z,51.95
2019-05-02T19:58:28.785Z,52.24
2019-05-02T20:00:55.815Z,52.77
2019-05-02T20:03:25.964Z,52.91
2019-05-02T20:05:51.912Z,52.91
2019-05-02T20:08:21.450Z,53.18
2019-05-02T20:10:52.426Z,53.43
2019-05-02T20:13:20.274Z,53.50
2019-05-02T20:15:44.757Z,53.65
2019-05-02T20:18:11.967Z,53.68
2019-05-02T20:20:46.288Z,53.87
2019-05-02T20:23:16.225Z,53.96
2019-05-02T20:25:42.612Z,54.13
2019-05-02T20:28:09.778Z,53.98
2019-05-02T20:30:36.618Z,54.14
2019-05-02T20:33:05.244Z,54.26
2019-05-02T20:35:32.010Z,54.53
2019-05-02T20:37:59.008Z,54.44
2019-05-02T20:40:32.134Z,54.71
2019-05-02T20:42:59.400Z,54.89
2019-05-02T20:45:26.624Z,55.01
2019-05-02T20:47:53.335Z,54.88
2019-05-02T20:50:20.080Z,54.84
2019-05-02T20:52:46.875Z,55.08
2019-05-02T20:55:13.576Z,54.86
2019-05-02T20:57:42.033Z,54.96
2019-05-02T21:00:23.614Z,54.98
2019-05-02T21:02:51.890Z,55.06
2019-05-02T21:05:21.618Z,55.09
2019-05-02T21:07:48.348Z,55.25
2019-05-02T21:10:15.409Z,55.13
2019-05-02T21:12:42.451Z,55.17
2019-05-02T21:15:09.167Z,55.24
2019-05-02T21:17:36.065Z,55.34
2019-05-02T21:20:05.191Z,55.24
2019-05-02T21:22:32.835Z,55.37
2019-05-02T21:24:59.558Z,55.13
2019-05-02T21:27:26.324Z,54.87
2019-05-02T21:29:53.195Z,54.82
2019-05-02T21:32:19.910Z,54.79
2019-05-02T21:34:46.656Z,54.78
2019-05-02T21:37:14.081Z,54.71
2019-05-02T21:39:42.487Z,54.70
2019-05-02T21:42:09.414Z,54.69
2019-05-02T21:44:36.167Z,54.54
2019-05-02T21:47:05.749Z,54.86
2019-05-02T21:49:32.117Z,54.82
2019-05-02T21:51:58.913Z,55.15
2019-05-02T21:54:25.693Z,55.22
2019-05-02T21:56:52.447Z,55.10
2019-05-02T21:59:19.194Z,55.25
2019-05-02T22:01:47.583Z,55.17
2019-05-02T22:04:14.330Z,55.15
2019-05-02T22:06:42.713Z,55.14
2019-05-02T22:09:09.784Z,55.30
2019-05-02T22:11:37.034Z,55.47
2019-05-02T22:14:04.814Z,55.45
2019-05-02T22:16:32.670Z,55.48
2019-05-02T22:18:59.714Z,55.54
2019-05-02T22:21:26.457Z,55.39
2019-05-02T22:23:53.210Z,55.22
2019-05-02T22:26:21.996Z,55.32
2019-05-02T22:28:48.512Z,55.02
2019-05-02T22:31:15.384Z,54.97
2019-05-02T22:33:44.564Z,54.74
2019-05-02T22:36:12.333Z,54.80
2019-05-02T22:38:39.272Z,54.88
2019-05-02T22:41:06.007Z,54.86
2019-05-02T22:43:32.787Z,54.99
2019-05-02T22:45:59.637Z,54.95
2019-05-02T22:48:26.382Z,54.85
2019-05-02T22:50:53.091Z,54.80
2019-05-02T22:53:21.599Z,54.79
2019-05-02T22:55:48.324Z,54.95
2019-05-02T22:58:15.046Z,54.72
2019-05-02T23:00:41.832Z,54.88
2019-05-02T23:03:08.570Z,54.83
2019-05-02T23:05:35.451Z,54.90
2019-05-02T23:08:02.373Z,54.99
2019-05-02T23:10:29.124Z,55.06
2019-05-02T23:12:56.014Z,54.96
2019-05-02T23:15:22.723Z,54.71
2019-05-02T23:17:49.472Z,54.76
2019-05-02T23:20:16.390Z,55.60
2019-05-02T23:22:43.117Z,55.65
2019-05-02T23:25:12.005Z,55.55
2019-05-02T23:27:39.891Z,55.60
2019-05-02T23:30:09.413Z,55.46
2019-05-02T23:32:36.293Z,55.42
2019-05-02T23:35:07.310Z,55.30
2019-05-02T23:37:33.448Z,55.32
2019-05-02T23:40:02.033Z,54.77
2019-05-02T23:42:28.862Z,54.40
2019-05-02T23:44:55.622Z,55.05
2019-05-02T23:47:22.576Z,54.81
2019-05-02T23:49:49.267Z,53.77
2019-05-02T23:52:15.980Z,53.35
2019-05-02T23:54:49.926Z,53.83
2019-05-02T23:57:12.136Z,54.16
2019-05-02T23:59:39.055Z,53.85
